Time;durP1;ratioP1;P1;durP2;ratioP2;P2;SDS_P1;SDS_P2;PMS_P1;PMS_P2;Temp;Humidity;BMP_temperature;BMP_pressure;BME280_temperature;BME280_humidity;BME280_pressure;Samples;Min_cycle;Max_cycle;Signal;HPM_P1;HPM_P2
2021/05/10 00:00:06;;;;;;;;;;;;;;;14.64;40.43;101581.73;1757902;82;20217;-77
2021/05/10 00:02:35;;;;;;;;;;;;;;;14.63;40.54;101583.25;1756143;81;20250;-78
2021/05/10 00:05:02;;;;;;;;;;;;;;;14.62;40.45;101577.48;1755661;82;20475;-78
2021/05/10 00:07:29;;;;;;;;;;;;;;;14.59;40.54;101577.31;1755643;82;20216;-78
2021/05/10 00:09:56;;;;;;;;;;;;;;;14.55;40.65;101580.48;1755407;82;20220;-78
2021/05/10 00:12:23;;;;;;;;;;;;;;;14.52;40.65;101581.63;1755527;82;20205;-79
2021/05/10 00:14:51;;;;;;;;;;;;;;;14.51;40.73;101591.23;1755554;82;20478;-79
2021/05/10 00:17:19;;;;;;;;;;;;;;;14.51;40.60;101592.08;1755452;82;20229;-79
2021/05/10 00:19:47;;;;;;;;;;;;;;;14.49;40.54;101588.70;1755284;82;20266;-79
2021/05/10 00:22:14;;;;;;;;;;;;;;;14.47;40.45;101589.31;1755287;82;20253;-79
2021/05/10 00:24:43;;;;;;;;;;;;;;;14.42;40.51;101586.24;1758467;80;20274;-78
2021/05/10 00:27:11;;;;;;;;;;;;;;;14.39;40.58;101587.89;1782451;80;20230;-79
2021/05/10 00:29:39;;;;;;;;;;;;;;;14.41;40.71;101585.91;1786211;80;20211;-79
2021/05/10 00:32:06;;;;;;;;;;;;;;;14.45;40.68;101584.59;1785614;80;20591;-79
2021/05/10 00:34:33;;;;;;;;;;;;;;;14.45;40.79;101586.78;1786562;80;20221;-80
2021/05/10 00:37:00;;;;;;;;;;;;;;;14.42;40.94;101585.73;1787116;80;20238;-80
2021/05/10 00:39:27;;;;;;;;;;;;;;;14.42;40.83;101584.89;1786796;80;20302;-79
2021/05/10 00:41:57;;;;;;;;;;;;;;;14.40;40.87;101586.91;1778902;80;20473;-79
2021/05/10 00:44:24;;;;;;;;;;;;;;;14.44;40.93;101583.75;1756361;81;20485;-79
2021/05/10 00:46:54;;;;;;;;;;;;;;;14.48;40.75;101586.98;1755988;82;20203;-80
2021/05/10 00:49:22;;;;;;;;;;;;;;;14.49;40.59;101584.66;1755773;81;20234;-80
2021/05/10 00:51:49;;;;;;;;;;;;;;;14.41;40.55;101592.14;1755698;81;20215;-80
2021/05/10 00:54:16;;;;;;;;;;;;;;;14.33;40.60;101588.02;1755914;81;20219;-80
2021/05/10 00:56:42;;;;;;;;;;;;;;;14.26;40.65;101588.31;1755838;82;20215;-80
2021/05/10 00:59:09;;;;;;;;;;;;;;;14.16;40.91;101583.47;1755865;82;20239;-80
2021/05/10 01:01:37;;;;;;;;;;;;;;;14.04;41.15;101585.57;1755557;82;20329;-79
2021/05/10 01:04:04;;;;;;;;;;;;;;;13.95;41.35;101581.10;1742667;82;20223;-79
2021/05/10 01:06:33;;;;;;;;;;;;;;;13.88;41.22;101583.54;1755444;81;20218;-79
2021/05/10 01:09:00;;;;;;;;;;;;;;;13.84;41.18;101576.76;1755673;81;20497;-78
2021/05/10 01:11:26;;;;;;;;;;;;;;;13.80;41.36;101578.06;1757000;82;20238;-78
2021/05/10 01:13:54;;;;;;;;;;;;;;;13.77;41.44;101574.84;1757489;82;20362;-77
2021/05/10 01:16:21;;;;;;;;;;;;;;;13.72;41.61;101576.65;1757352;81;20219;-79
2021/05/10 01:18:49;;;;;;;;;;;;;;;13.65;41.73;101570.16;1757399;81;20215;-79
2021/05/10 01:21:16;;;;;;;;;;;;;;;13.63;41.73;101584.28;1744514;82;20215;-78
2021/05/10 01:23:45;;;;;;;;;;;;;;;13.61;41.71;101574.99;1755970;81;20468;-77
2021/05/10 01:26:12;;;;;;;;;;;;;;;13.57;41.65;101574.94;1757021;81;20250;-77
2021/05/10 01:28:41;;;;;;;;;;;;;;;13.53;41.58;101578.09;1757270;82;20207;-78
2021/05/10 01:31:09;;;;;;;;;;;;;;;13.52;41.57;101579.93;1756376;81;20223;-80
2021/05/10 01:33:36;;;;;;;;;;;;;;;13.50;41.70;101579.75;1756264;81;20216;-80
2021/05/10 01:36:04;;;;;;;;;;;;;;;13.51;41.73;101575.55;1757423;82;20484;-79
2021/05/10 01:38:30;;;;;;;;;;;;;;;13.57;41.68;101574.94;1756283;82;20222;-80
2021/05/10 01:40:57;;;;;;;;;;;;;;;13.66;41.60;101578.58;1768507;81;20269;-80
2021/05/10 01:43:24;;;;;;;;;;;;;;;13.72;41.60;101579.34;1755921;82;20244;-80
2021/05/10 01:45:51;;;;;;;;;;;;;;;13.74;41.61;101584.06;1768127;80;20272;-80
2021/05/10 01:48:18;;;;;;;;;;;;;;;13.74;41.61;101587.26;1766568;80;20228;-78
2021/05/10 01:50:47;;;;;;;;;;;;;;;13.65;41.58;101588.50;1744348;81;20217;-79
2021/05/10 01:53:14;;;;;;;;;;;;;;;13.63;41.51;101589.17;1761724;80;20486;-79
2021/05/10 01:55:42;;;;;;;;;;;;;;;13.62;41.53;101596.88;1764752;80;20240;-78
2021/05/10 01:58:09;;;;;;;;;;;;;;;13.64;41.57;101596.23;1764370;80;20217;-78
2021/05/10 02:00:41;;;;;;;;;;;;;;;13.64;41.54;101597.59;1770768;80;20485;-78
2021/05/10 02:03:13;;;;;;;;;;;;;;;13.64;41.49;101596.23;1768430;80;20213;-78
2021/05/10 02:05:40;;;;;;;;;;;;;;;13.64;41.63;101593.55;1768808;80;20216;-79
2021/05/10 02:08:09;;;;;;;;;;;;;;;13.62;41.61;101598.22;1764134;80;20260;-79
2021/05/10 02:10:37;;;;;;;;;;;;;;;13.59;41.64;101600.39;1770773;80;20227;-76
2021/05/10 02:13:06;;;;;;;;;;;;;;;13.52;41.62;101609.55;1767469;80;20222;-77
2021/05/10 02:15:35;;;;;;;;;;;;;;;13.51;41.64;101616.44;1755911;80;20233;-78
2021/05/10 02:18:02;;;;;;;;;;;;;;;13.54;41.67;101612.11;1768567;80;20224;-77
2021/05/10 02:20:29;;;;;;;;;;;;;;;13.57;41.65;101619.36;1764341;80;20224;-77
2021/05/10 02:23:04;;;;;;;;;;;;;;;13.59;41.77;101620.58;1767271;80;20233;-78
2021/05/10 02:25:32;;;;;;;;;;;;;;;13.58;41.73;101618.86;1772004;80;20630;-78
2021/05/10 02:27:59;;;;;;;;;;;;;;;13.59;41.71;101622.77;1767499;80;20214;-78
2021/05/10 02:30:28;;;;;;;;;;;;;;;13.57;41.67;101620.70;1758967;80;20260;-79
2021/05/10 02:32:54;;;;;;;;;;;;;;;13.56;41.52;101627.09;1731219;82;20217;-78
2021/05/10 02:35:21;;;;;;;;;;;;;;;13.56;41.47;101624.41;1755135;82;20248;-79
2021/05/10 02:37:49;;;;;;;;;;;;;;;13.60;41.46;101625.80;1756270;82;20245;-78
2021/05/10 02:40:17;;;;;;;;;;;;;;;13.67;41.53;101625.56;1755602;82;20663;-78
2021/05/10 02:42:45;;;;;;;;;;;;;;;13.71;41.53;101636.36;1755467;82;20221;-78
2021/05/10 02:45:13;;;;;;;;;;;;;;;13.69;41.39;101634.83;1754730;82;20280;-79
2021/05/10 02:47:40;;;;;;;;;;;;;;;13.64;41.36;101640.66;1755578;82;20510;-78
2021/05/10 02:50:11;;;;;;;;;;;;;;;13.63;41.41;101640.32;1755476;82;20256;-78
2021/05/10 02:52:38;;;;;;;;;;;;;;;13.60;41.52;101641.95;1755515;82;20245;-79
2021/05/10 02:55:07;;;;;;;;;;;;;;;13.55;41.70;101642.06;1755392;82;20236;-79
2021/05/10 02:57:34;;;;;;;;;;;;;;;13.52;41.81;101641.84;1756238;82;20241;-79
2021/05/10 03:00:01;;;;;;;;;;;;;;;13.50;41.77;101647.05;1755743;82;20224;-78
2021/05/10 03:02:27;;;;;;;;;;;;;;;13.43;41.77;101648.95;1755019;82;20292;-80
2021/05/10 03:04:55;;;;;;;;;;;;;;;13.44;41.81;101655.19;1755753;82;20491;-80
2021/05/10 03:07:22;;;;;;;;;;;;;;;13.40;41.87;101647.93;1755775;82;20205;-80
2021/05/10 03:09:49;;;;;;;;;;;;;;;13.41;41.87;101653.66;1755905;82;20218;-80
2021/05/10 03:12:16;;;;;;;;;;;;;;;13.42;41.86;101649.12;1755691;82;20388;-80
2021/05/10 03:14:44;;;;;;;;;;;;;;;13.47;41.86;101656.75;1755814;81;20229;-80
2021/05/10 03:17:10;;;;;;;;;;;;;;;13.48;41.94;101659.28;1756078;82;20245;-79
2021/05/10 03:19:37;;;;;;;;;;;;;;;13.49;41.93;101658.31;1756730;82;20588;-79
2021/05/10 03:22:04;;;;;;;;;;;;;;;13.52;41.96;101666.06;1756751;82;20273;-78
2021/05/10 03:24:31;;;;;;;;;;;;;;;13.54;42.03;101668.13;1756568;80;20197;-78
2021/05/10 03:26:59;;;;;;;;;;;;;;;13.56;42.00;101669.32;1756852;82;20229;-79
2021/05/10 03:29:27;;;;;;;;;;;;;;;13.58;42.06;101671.35;1756273;82;20642;-80
2021/05/10 03:31:54;;;;;;;;;;;;;;;13.56;42.17;101675.55;1755883;80;20229;-80
2021/05/10 03:34:21;;;;;;;;;;;;;;;13.57;42.22;101675.05;1755730;81;20466;-79
2021/05/10 03:36:48;;;;;;;;;;;;;;;13.59;42.29;101681.99;1755158;82;20220;-80
2021/05/10 03:39:15;;;;;;;;;;;;;;;13.61;42.28;101683.18;1754231;82;20628;-80
2021/05/10 03:41:42;;;;;;;;;;;;;;;13.65;42.22;101690.81;1754021;82;20264;-79
2021/05/10 03:44:09;;;;;;;;;;;;;;;13.70;42.34;101695.25;1754502;82;20364;-80
2021/05/10 03:46:36;;;;;;;;;;;;;;;13.76;42.23;101697.00;1765212;80;20218;-80
2021/05/10 03:49:03;;;;;;;;;;;;;;;13.82;42.18;101693.73;1785600;80;20255;-79
2021/05/10 03:51:29;;;;;;;;;;;;;;;13.86;42.18;101691.94;1785148;80;20265;-78
2021/05/10 03:53:56;;;;;;;;;;;;;;;13.91;42.24;101690.14;1784941;80;20536;-79
2021/05/10 03:56:23;;;;;;;;;;;;;;;14.03;42.29;101694.80;1785031;80;20262;-79
2021/05/10 03:58:51;;;;;;;;;;;;;;;14.17;42.17;101690.25;1784402;80;20278;-78
2021/05/10 04:01:17;;;;;;;;;;;;;;;14.34;42.08;101692.63;1784117;80;20562;-79
2021/05/10 04:14:28;;;;;;;;;;;;;;;14.91;41.51;101698.09;1752507;82;20447;-78
2021/05/10 04:16:55;;;;;;;;;;;;;;;15.00;41.61;101701.70;1753150;82;20287;-78
2021/05/10 04:19:22;;;;;;;;;;;;;;;15.07;41.35;101701.41;1753358;82;20273;-78
2021/05/10 04:21:49;;;;;;;;;;;;;;;15.14;41.39;101695.73;1753137;82;20299;-78
2021/05/10 04:24:16;;;;;;;;;;;;;;;15.25;41.41;101695.97;1753158;82;20265;-79
2021/05/10 04:26:43;;;;;;;;;;;;;;;15.35;41.72;101694.03;1755576;81;20284;-77
2021/05/10 04:29:09;;;;;;;;;;;;;;;15.47;41.65;101698.64;1754407;82;20569;-78
2021/05/10 04:31:39;;;;;;;;;;;;;;;15.58;41.47;101697.04;1755235;82;20474;-76
2021/05/10 04:34:06;;;;;;;;;;;;;;;15.69;41.32;101694.58;1755294;82;20475;-79
2021/05/10 04:36:33;;;;;;;;;;;;;;;15.78;41.33;101694.96;1753870;82;20300;-77
2021/05/10 04:39:00;;;;;;;;;;;;;;;15.85;41.38;101698.72;1753701;82;20248;-78
2021/05/10 04:41:27;;;;;;;;;;;;;;;15.87;41.55;101702.09;1753946;82;20284;-77
2021/05/10 04:43:54;;;;;;;;;;;;;;;15.96;41.50;101698.41;1754682;82;20260;-77
2021/05/10 04:46:21;;;;;;;;;;;;;;;16.05;41.43;101701.99;1754077;82;20225;-77
2021/05/10 04:48:48;;;;;;;;;;;;;;;16.12;41.42;101705.72;1753845;82;20276;-77
2021/05/10 04:51:15;;;;;;;;;;;;;;;16.18;41.41;101704.23;1754000;82;20325;-78
2021/05/10 04:53:42;;;;;;;;;;;;;;;16.24;41.45;101703.06;1755193;82;20220;-79
2021/05/10 04:56:09;;;;;;;;;;;;;;;16.31;41.45;101701.06;1755158;82;20284;-78
2021/05/10 04:58:36;;;;;;;;;;;;;;;16.38;41.62;101703.43;1754542;82;20582;-78
2021/05/10 05:01:03;;;;;;;;;;;;;;;16.47;41.69;101703.78;1754696;82;20237;-78
2021/05/10 05:03:30;;;;;;;;;;;;;;;16.55;41.58;101705.16;1754800;82;20283;-78
2021/05/10 05:05:59;;;;;;;;;;;;;;;16.55;41.28;101699.75;1755437;82;20216;-78
2021/05/10 05:08:25;;;;;;;;;;;;;;;16.63;40.90;101707.88;1756245;82;20228;-78
2021/05/10 05:10:53;;;;;;;;;;;;;;;16.77;40.42;101705.05;1754773;82;20268;-77
2021/05/10 05:13:21;;;;;;;;;;;;;;;16.85;40.46;101709.59;1753835;82;20276;-77
2021/05/10 05:15:48;;;;;;;;;;;;;;;16.96;39.84;101711.47;1753985;82;20263;-77
2021/05/10 05:18:15;;;;;;;;;;;;;;;17.12;39.19;101716.05;1754107;82;20276;-78
2021/05/10 05:20:42;;;;;;;;;;;;;;;17.21;38.25;101712.31;1753681;82;20322;-78
2021/05/10 05:23:18;;;;;;;;;;;;;;;17.33;36.96;101713.30;1753534;82;20292;-78
2021/05/10 05:25:45;;;;;;;;;;;;;;;17.43;36.43;101715.30;1753681;81;20287;-78
2021/05/10 05:28:12;;;;;;;;;;;;;;;17.50;36.22;101714.45;1755215;82;20228;-79
2021/05/10 05:30:39;;;;;;;;;;;;;;;17.65;36.21;101719.16;1755132;82;20487;-77
2021/05/10 05:33:05;;;;;;;;;;;;;;;17.81;35.36;101715.59;1754029;82;20435;-78
2021/05/10 05:35:33;;;;;;;;;;;;;;;17.94;34.27;101717.20;1754231;82;20353;-78
2021/05/10 05:38:00;;;;;;;;;;;;;;;18.05;33.54;101720.06;1753327;81;20299;-77
2021/05/10 05:40:27;;;;;;;;;;;;;;;18.18;32.77;101712.20;1753393;82;20294;-78
2021/05/10 05:42:54;;;;;;;;;;;;;;;18.32;32.16;101716.03;1753296;82;20307;-78
2021/05/10 05:45:22;;;;;;;;;;;;;;;18.42;31.60;101716.64;1753599;81;20311;-78
2021/05/10 05:47:49;;;;;;;;;;;;;;;18.49;31.19;101713.55;1753049;82;20299;-78
2021/05/10 05:50:16;;;;;;;;;;;;;;;18.58;30.65;101720.61;1752822;81;20315;-77
2021/05/10 05:52:44;;;;;;;;;;;;;;;18.68;30.27;101721.73;1753177;82;20279;-78
2021/05/10 05:55:13;;;;;;;;;;;;;;;18.78;29.76;101716.93;1753312;82;20565;-77
2021/05/10 05:57:42;;;;;;;;;;;;;;;18.93;29.42;101723.76;1753905;82;20298;-77
2021/05/10 06:00:11;;;;;;;;;;;;;;;19.21;30.97;101719.95;1753695;82;20331;-77
2021/05/10 06:02:40;;;;;;;;;;;;;;;19.52;32.50;101720.64;1760460;80;20376;-77
2021/05/10 06:05:09;;;;;;;;;;;;;;;19.74;31.68;101716.71;1775319;80;20297;-77
2021/05/10 06:07:43;;;;;;;;;;;;;;;19.71;31.06;101716.59;1784169;80;20306;-77
2021/05/10 06:10:12;;;;;;;;;;;;;;;19.85;30.88;101714.89;1784735;80;20277;-78
2021/05/10 06:12:40;;;;;;;;;;;;;;;20.06;30.45;101711.38;1784181;80;20290;-78
2021/05/10 06:15:07;;;;;;;;;;;;;;;20.24;29.97;101705.02;1783285;80;20282;-77
2021/05/10 06:17:37;;;;;;;;;;;;;;;20.45;28.55;101704.73;1782605;80;20281;-78
2021/05/10 06:20:05;;;;;;;;;;;;;;;20.66;27.50;101702.55;1783296;80;20647;-79
2021/05/10 06:22:32;;;;;;;;;;;;;;;20.86;27.73;101705.48;1783625;80;20526;-79
2021/05/10 06:25:00;;;;;;;;;;;;;;;21.05;28.10;101703.45;1782944;80;20254;-77
2021/05/10 06:27:26;;;;;;;;;;;;;;;21.24;26.80;101702.75;1780219;80;20205;-77
2021/05/10 06:29:54;;;;;;;;;;;;;;;21.44;25.93;101702.11;1775970;80;20262;-77
2021/05/10 06:32:22;;;;;;;;;;;;;;;21.64;26.35;101695.41;1771134;80;20544;-77
2021/05/10 06:34:49;;;;;;;;;;;;;;;21.85;25.28;101695.84;1784452;80;20262;-77
2021/05/10 06:37:20;;;;;;;;;;;;;;;22.11;24.84;101693.72;1784620;80;20269;-77
2021/05/10 06:39:47;;;;;;;;;;;;;;;22.33;24.64;101693.09;1782944;80;20262;-77
2021/05/10 06:42:15;;;;;;;;;;;;;;;22.57;24.52;101703.44;1784624;80;20508;-78
2021/05/10 06:44:42;;;;;;;;;;;;;;;22.83;24.74;101708.63;1785040;80;20217;-78
2021/05/10 06:47:09;;;;;;;;;;;;;;;23.06;24.22;101710.98;1785057;80;20230;-77
2021/05/10 06:49:35;;;;;;;;;;;;;;;23.26;24.05;101711.30;1786038;80;20214;-77
2021/05/10 06:52:03;;;;;;;;;;;;;;;23.43;23.56;101704.01;1786255;80;20231;-77
2021/05/10 06:54:30;;;;;;;;;;;;;;;23.58;23.50;101707.37;1786063;80;20215;-76
2021/05/10 06:56:56;;;;;;;;;;;;;;;23.73;23.51;101707.98;1786256;80;20202;-76
2021/05/10 06:59:23;;;;;;;;;;;;;;;23.89;22.71;101709.91;1786160;80;20416;-76
2021/05/10 07:01:50;;;;;;;;;;;;;;;24.00;22.48;101712.00;1785726;80;20222;-78
2021/05/10 07:04:18;;;;;;;;;;;;;;;24.08;22.18;101699.97;1785799;80;20262;-77
2021/05/10 07:06:44;;;;;;;;;;;;;;;24.11;22.41;101701.72;1784456;80;20270;-77
2021/05/10 07:09:11;;;;;;;;;;;;;;;24.19;22.20;101702.84;1785030;80;20237;-78
2021/05/10 07:11:40;;;;;;;;;;;;;;;24.18;22.51;101699.81;1784507;80;20277;-79
2021/05/10 07:14:07;;;;;;;;;;;;;;;24.31;21.68;101704.37;1784824;80;20299;-77
2021/05/10 07:16:34;;;;;;;;;;;;;;;24.46;21.86;101704.11;1783889;80;20285;-77
2021/05/10 07:19:04;;;;;;;;;;;;;;;24.56;21.22;101697.61;1784402;80;37794;-77
2021/05/10 07:21:31;;;;;;;;;;;;;;;24.62;21.39;101695.88;1784212;79;20547;-77
2021/05/10 07:23:58;;;;;;;;;;;;;;;24.72;21.15;101699.00;1775517;80;20282;-77
2021/05/10 07:26:25;;;;;;;;;;;;;;;24.83;21.03;101701.00;1777422;80;20278;-78
2021/05/10 07:28:53;;;;;;;;;;;;;;;24.98;19.95;101698.80;1778308;80;20619;-78
2021/05/10 07:31:20;;;;;;;;;;;;;;;25.05;19.50;101694.61;1776362;80;20393;-78
2021/05/10 07:33:47;;;;;;;;;;;;;;;25.09;19.87;101691.77;1793759;80;20288;-78
2021/05/10 07:36:14;;;;;;;;;;;;;;;25.18;19.63;101687.67;1803681;79;20616;-78
2021/05/10 07:38:41;;;;;;;;;;;;;;;25.27;19.89;101686.86;1803920;79;20368;-78
2021/05/10 07:41:08;;;;;;;;;;;;;;;25.37;20.11;101688.54;1804399;79;20302;-77
2021/05/10 07:43:35;;;;;;;;;;;;;;;25.47;19.62;101679.78;1804580;79;20284;-78
2021/05/10 07:46:02;;;;;;;;;;;;;;;25.54;19.08;101677.82;1804082;79;20264;-78
2021/05/10 07:48:30;;;;;;;;;;;;;;;25.62;18.81;101672.55;1782935;79;20644;-77
2021/05/10 07:50:57;;;;;;;;;;;;;;;25.66;18.95;101682.00;1803334;79;20279;-77
2021/05/10 07:53:24;;;;;;;;;;;;;;;25.67;18.80;101677.67;1802832;79;20291;-77
2021/05/10 07:55:53;;;;;;;;;;;;;;;25.65;18.76;101681.70;1804068;79;20242;-77
2021/05/10 07:58:22;;;;;;;;;;;;;;;25.63;18.66;101678.36;1800149;79;20304;-77
2021/05/10 08:00:52;;;;;;;;;;;;;;;25.66;19.28;101677.88;1800971;79;20588;-76
2021/05/10 08:03:18;;;;;;;;;;;;;;;25.69;19.74;101667.30;1799544;79;20244;-78
2021/05/10 08:05:45;;;;;;;;;;;;;;;25.74;19.49;101659.20;1778003;79;20265;-76
2021/05/10 08:08:13;;;;;;;;;;;;;;;25.83;19.45;101658.94;1794953;79;20308;-79
2021/05/10 08:10:40;;;;;;;;;;;;;;;25.95;19.44;101661.22;1789872;79;20468;-77
2021/05/10 08:13:07;;;;;;;;;;;;;;;26.05;18.79;101658.21;1747924;82;20262;-77
2021/05/10 08:15:35;;;;;;;;;;;;;;;26.10;18.16;101660.80;1747606;82;20298;-78
2021/05/10 08:18:04;;;;;;;;;;;;;;;26.13;18.46;101655.69;1747371;82;20368;-77
2021/05/10 08:20:33;;;;;;;;;;;;;;;26.18;18.96;101657.20;1746247;80;20549;-78
2021/05/10 08:23:00;;;;;;;;;;;;;;;26.21;18.91;101651.25;1769301;80;20397;-78
2021/05/10 08:25:27;;;;;;;;;;;;;;;26.18;18.92;101655.83;1772962;80;20238;-77
2021/05/10 08:27:54;;;;;;;;;;;;;;;26.16;18.95;101647.50;1774663;80;20290;-77
2021/05/10 08:30:22;;;;;;;;;;;;;;;26.14;18.06;101645.00;1778340;80;20270;-78
2021/05/10 08:32:49;;;;;;;;;;;;;;;26.08;18.60;101645.11;1778150;80;20254;-78
2021/05/10 08:35:16;;;;;;;;;;;;;;;26.05;18.90;101647.77;1775894;80;20234;-78
2021/05/10 08:37:42;;;;;;;;;;;;;;;26.03;19.29;101643.05;1777058;79;20309;-77
2021/05/10 08:40:10;;;;;;;;;;;;;;;26.04;19.25;101640.61;1772508;80;20307;-78
2021/05/10 08:42:38;;;;;;;;;;;;;;;26.04;18.87;101640.61;1774558;79;20308;-77
2021/05/10 08:45:07;;;;;;;;;;;;;;;25.98;18.65;101640.14;1770474;79;20267;-78
2021/05/10 08:47:35;;;;;;;;;;;;;;;25.93;18.87;101637.26;1759554;80;20280;-78
2021/05/10 08:50:05;;;;;;;;;;;;;;;25.93;18.87;101631.77;1781970;79;20295;-78
2021/05/10 08:52:35;;;;;;;;;;;;;;;25.93;18.69;101627.65;1741816;81;20283;-77
2021/05/10 08:55:04;;;;;;;;;;;;;;;25.87;18.60;101639.03;1742128;82;20294;-79
2021/05/10 08:57:31;;;;;;;;;;;;;;;25.83;18.62;101628.20;1742168;82;20291;-79
2021/05/10 08:59:58;;;;;;;;;;;;;;;25.82;18.70;101621.05;1742765;82;20294;-78
2021/05/10 09:02:32;;;;;;;;;;;;;;;25.76;18.98;101624.19;1742849;82;20258;-79
2021/05/10 09:05:13;;;;;;;;;;;;;;;25.73;19.30;101621.86;1744195;81;20262;-78
2021/05/10 09:07:42;;;;;;;;;;;;;;;25.72;19.17;101618.82;1737152;81;20284;-79
2021/05/10 09:10:14;;;;;;;;;;;;;;;25.71;19.37;101615.78;1773720;79;20267;-78
2021/05/10 09:12:47;;;;;;;;;;;;;;;25.67;19.08;101614.56;1740317;82;20268;-79
2021/05/10 09:15:32;;;;;;;;;;;;;;;25.62;19.10;101615.78;1798355;79;20291;-79
2021/05/10 09:18:02;;;;;;;;;;;;;;;25.55;18.82;101602.13;1809606;79;20251;-79
2021/05/10 09:20:38;;;;;;;;;;;;;;;25.54;19.03;101599.09;1810121;79;20288;-79
2021/05/10 09:23:09;;;;;;;;;;;;;;;25.50;18.85;101604.73;1809675;79;20263;-79
2021/05/10 09:25:38;;;;;;;;;;;;;;;25.42;19.22;101593.23;1810376;79;20284;-79
2021/05/10 09:28:20;;;;;;;;;;;;;;;25.36;19.62;101587.30;1809866;79;20426;-79
2021/05/10 09:30:48;;;;;;;;;;;;;;;25.37;19.14;101593.08;1809679;79;20295;-78
2021/05/10 09:33:26;;;;;;;;;;;;;;;25.29;19.47;101584.08;1803305;79;20334;-79
2021/05/10 09:36:06;;;;;;;;;;;;;;;25.20;19.44;101584.61;1803002;79;20268;-79
2021/05/10 09:38:33;;;;;;;;;;;;;;;25.10;19.20;101583.77;1784972;79;20240;-79
2021/05/10 09:41:02;;;;;;;;;;;;;;;24.98;19.38;101585.55;1800493;79;20283;-77
2021/05/10 09:43:35;;;;;;;;;;;;;;;24.89;19.85;101578.17;1771465;79;20281;-79
2021/05/10 09:46:11;;;;;;;;;;;;;;;24.84;20.11;101571.67;1772103;81;20246;-79
2021/05/10 09:48:40;;;;;;;;;;;;;;;24.79;19.88;101566.33;1785414;79;20261;-78
2021/05/10 09:51:12;;;;;;;;;;;;;;;24.73;19.77;101560.39;1777777;80;20247;-78
2021/05/10 09:53:48;;;;;;;;;;;;;;;24.68;20.20;101559.40;1777757;79;20760;-77
2021/05/10 09:58:57;;;;;;;;;;;;;;;24.61;19.57;101549.85;1809777;79;20260;-76
2021/05/10 10:01:25;;;;;;;;;;;;;;;24.56;19.86;101552.43;1810046;79;20244;-77
2021/05/10 10:03:58;;;;;;;;;;;;;;;24.46;19.56;101548.83;1809913;79;20264;-76
2021/05/10 10:06:25;;;;;;;;;;;;;;;24.23;19.79;101539.82;1808431;79;20256;-77
2021/05/10 10:08:52;;;;;;;;;;;;;;;24.11;19.49;101538.85;1808892;79;20286;-77
2021/05/10 10:11:20;;;;;;;;;;;;;;;23.99;19.88;101538.73;1809942;79;20236;-78
2021/05/10 10:13:47;;;;;;;;;;;;;;;23.94;20.31;101538.56;1814806;79;20279;-78
2021/05/10 10:16:17;;;;;;;;;;;;;;;23.90;20.60;101541.96;1810073;79;20557;-77
2021/05/10 10:18:45;;;;;;;;;;;;;;;23.85;20.46;101541.25;1809007;79;20543;-77
2021/05/10 10:21:14;;;;;;;;;;;;;;;23.79;20.41;101537.48;1809606;79;20514;-78
2021/05/10 10:23:41;;;;;;;;;;;;;;;23.73;20.82;101523.31;1787341;79;20225;-77
2021/05/10 10:26:14;;;;;;;;;;;;;;;23.68;20.86;101521.77;1807599;79;20268;-78
2021/05/10 10:28:41;;;;;;;;;;;;;;;23.61;20.13;101522.29;1791985;79;20272;-78
2021/05/10 10:31:17;;;;;;;;;;;;;;;23.55;20.63;101526.74;1767596;80;20648;-77
2021/05/10 10:33:50;;;;;;;;;;;;;;;23.53;20.60;101514.36;1745558;82;20300;-78
2021/05/10 10:36:39;;;;;;;;;;;;;;;23.54;20.50;101514.66;1766852;79;20334;-77
2021/05/10 10:39:12;;;;;;;;;;;;;;;23.51;20.27;101516.45;1767973;80;20741;-76
2021/05/10 10:41:54;;;;;;;;;;;;;;;23.50;20.76;101507.42;1749991;80;20534;-77
2021/05/10 10:44:32;;;;;;;;;;;;;;;23.54;20.69;101494.99;1757063;80;20242;-78
2021/05/10 10:46:58;;;;;;;;;;;;;;;23.58;20.95;101485.83;1778702;80;20242;-77
2021/05/10 10:49:30;;;;;;;;;;;;;;;23.62;20.74;101491.17;1776502;80;20517;-78
2021/05/10 10:51:57;;;;;;;;;;;;;;;23.63;20.61;101481.91;1747693;82;20256;-79
2021/05/10 10:54:28;;;;;;;;;;;;;;;23.73;20.74;101475.44;1764333;80;20258;-78
2021/05/10 10:57:03;;;;;;;;;;;;;;;23.78;20.60;101471.52;1777730;80;20298;-78
2021/05/10 10:59:37;;;;;;;;;;;;;;;23.78;21.00;101469.31;1756107;80;20758;-78
2021/05/10 11:02:20;;;;;;;;;;;;;;;23.79;20.75;101466.88;1870536;75;20211;-78
2021/05/10 11:05:12;;;;;;;;;;;;;;;23.73;20.75;101466.40;1849857;77;20404;-77
2021/05/10 11:07:48;;;;;;;;;;;;;;;23.66;20.11;101469.69;1848057;77;20155;-78
2021/05/10 11:10:46;;;;;;;;;;;;;;;23.60;19.75;101463.19;1848382;77;20238;-77
2021/05/10 11:13:29;;;;;;;;;;;;;;;23.59;20.19;101465.62;1848323;77;20273;-77
2021/05/10 11:16:16;;;;;;;;;;;;;;;23.61;20.44;101458.02;1846916;77;20532;-77
2021/05/10 11:18:51;;;;;;;;;;;;;;;23.59;20.68;101461.52;1854125;76;20320;-76
2021/05/10 11:21:27;;;;;;;;;;;;;;;23.59;20.75;101448.38;1855319;77;20551;-77
2021/05/10 11:23:59;;;;;;;;;;;;;;;23.55;20.11;101438.39;1856296;77;20558;-77
2021/05/10 11:26:50;;;;;;;;;;;;;;;23.47;20.24;101444.95;1851815;77;20301;-78
2021/05/10 11:29:29;;;;;;;;;;;;;;;23.42;20.41;101448.04;1854776;77;20273;-76
2021/05/10 11:32:12;;;;;;;;;;;;;;;23.38;20.27;101438.06;1845163;76;20279;-78
2021/05/10 11:34:40;;;;;;;;;;;;;;;23.37;20.40;101432.83;1828858;78;20306;-78
2021/05/10 11:37:07;;;;;;;;;;;;;;;23.32;20.26;101436.75;1828350;78;20255;-76
2021/05/10 11:39:35;;;;;;;;;;;;;;;23.27;19.94;101427.30;1828778;78;20278;-77
2021/05/10 11:42:10;;;;;;;;;;;;;;;23.25;19.87;101426.67;1830218;77;20271;-76
2021/05/10 11:44:42;;;;;;;;;;;;;;;23.25;20.32;101432.67;1843672;77;20268;-79
2021/05/10 11:47:12;;;;;;;;;;;;;;;23.24;20.60;101425.53;1844792;77;20283;-78
2021/05/10 11:49:47;;;;;;;;;;;;;;;23.25;20.70;101425.30;1844109;75;20245;-76
2021/05/10 11:52:17;;;;;;;;;;;;;;;23.24;20.58;101423.63;1861499;77;20261;-78
2021/05/10 11:54:48;;;;;;;;;;;;;;;23.22;20.88;101414.83;1862276;77;20154;-78
2021/05/10 11:57:16;;;;;;;;;;;;;;;23.22;20.55;101405.26;1859656;77;20149;-76
2021/05/10 11:59:47;;;;;;;;;;;;;;;23.23;20.35;101411.56;1862411;77;20686;-77
2021/05/10 12:02:21;;;;;;;;;;;;;;;23.20;20.29;101411.98;1862103;77;20151;-77
2021/05/10 12:04:50;;;;;;;;;;;;;;;23.17;20.50;101408.34;1862788;77;20281;-78
2021/05/10 12:07:18;;;;;;;;;;;;;;;23.16;20.31;101404.75;1859356;77;20261;-79
2021/05/10 12:09:53;;;;;;;;;;;;;;;23.15;20.07;101398.98;1857261;77;20522;-78
2021/05/10 12:12:22;;;;;;;;;;;;;;;23.13;19.60;101387.44;1844063;75;20277;-77
2021/05/10 12:14:52;;;;;;;;;;;;;;;23.08;19.38;101391.36;1861257;77;20580;-78
2021/05/10 12:17:27;;;;;;;;;;;;;;;23.04;19.77;101387.38;1851798;76;20512;-77
2021/05/10 12:20:04;;;;;;;;;;;;;;;23.05;20.26;101383.59;1841985;76;20210;-77
2021/05/10 12:22:41;;;;;;;;;;;;;;;23.05;19.71;101383.59;1834364;76;20498;-78
2021/05/10 12:25:12;;;;;;;;;;;;;;;23.05;19.90;101376.75;1854718;77;20157;-77
2021/05/10 12:27:47;;;;;;;;;;;;;;;23.03;20.20;101376.98;1849833;77;20168;-78
2021/05/10 12:30:24;;;;;;;;;;;;;;;23.01;20.09;101359.12;1841237;75;20410;-77
2021/05/10 12:32:52;;;;;;;;;;;;;;;22.98;19.91;101360.41;1839488;75;20168;-78
2021/05/10 12:35:21;;;;;;;;;;;;;;;22.95;19.82;101365.47;1834420;77;20428;-77
2021/05/10 12:37:50;;;;;;;;;;;;;;;22.95;19.90;101359.47;1860187;77;20946;-77
2021/05/10 12:40:23;;;;;;;;;;;;;;;22.94;19.63;101356.97;1860964;77;20153;-77
2021/05/10 12:43:06;;;;;;;;;;;;;;;22.89;19.27;101353.52;1860502;77;20231;-78
2021/05/10 12:45:40;;;;;;;;;;;;;;;22.86;19.28;101343.52;1861871;77;20649;-78
2021/05/10 12:48:21;;;;;;;;;;;;;;;22.85;19.56;101334.48;1862717;77;20269;-78
2021/05/10 12:50:55;;;;;;;;;;;;;;;22.82;19.59;101335.45;1863130;77;20252;-79
2021/05/10 12:53:31;;;;;;;;;;;;;;;22.79;19.49;101334.81;1862916;77;20249;-78
2021/05/10 12:56:09;;;;;;;;;;;;;;;22.76;19.64;101328.44;1861859;77;20293;-77
2021/05/10 12:58:38;;;;;;;;;;;;;;;22.73;19.45;101326.13;1860911;77;20288;-77